createdAt,value
2019-01-17T00:00:49.930Z,75.17
2019-01-17T00:03:51.050Z,75.19
2019-01-17T00:06:39.768Z,74.93
2019-01-17T00:09:17.707Z,74.72
2019-01-17T00:12:05.157Z,74.78
2019-01-17T00:15:04.109Z,74.80
2019-01-17T00:18:00.075Z,74.46
2019-01-17T00:20:55.704Z,74.83
2019-01-17T00:23:51.546Z,74.99
2019-01-17T00:26:30.331Z,74.94
2019-01-17T00:29:20.348Z,74.42
2019-01-17T00:31:59.600Z,74.35
2019-01-17T00:34:49.650Z,75.15
2019-01-17T00:37:42.700Z,74.72
2019-01-17T00:40:30.218Z,74.87
2019-01-17T00:43:10.247Z,74.55
2019-01-17T00:45:58.734Z,74.69
2019-01-17T00:48:39.819Z,75.40
2019-01-17T00:51:28.407Z,75.10
2019-01-17T00:54:19.242Z,75.26
2019-01-17T00:57:05.803Z,75.54
2019-01-17T00:59:50.028Z,75.56
2019-01-17T01:02:40.188Z,75.64
2019-01-17T01:05:39.188Z,75.74
2019-01-17T01:08:29.020Z,75.51
2019-01-17T01:11:15.394Z,75.59
2019-01-17T01:14:05.158Z,75.99
2019-01-17T01:17:05.960Z,75.65
2019-01-17T01:19:47.184Z,75.03
2019-01-17T01:22:35.942Z,74.80
2019-01-17T01:25:17.054Z,75.98
2019-01-17T01:28:07.373Z,75.83
2019-01-17T01:31:00.671Z,76.77
2019-01-17T01:33:49.458Z,77.03
2019-01-17T01:36:37.964Z,77.40
2019-01-17T01:39:26.527Z,78.12
2019-01-17T01:42:16.294Z,78.63
2019-01-17T01:45:06.121Z,78.86
2019-01-17T01:47:53.616Z,78.29
2019-01-17T01:50:38.038Z,78.74
2019-01-17T01:53:08.881Z,78.83
2019-01-17T01:55:39.724Z,77.86
2019-01-17T01:58:10.865Z,76.70
2019-01-17T02:00:42.884Z,76.64
2019-01-17T02:03:13.704Z,76.28
2019-01-17T02:05:44.440Z,75.54
2019-01-17T02:08:15.275Z,75.54
2019-01-17T02:10:46.879Z,75.33
2019-01-17T02:13:17.748Z,75.30
2019-01-17T02:15:48.893Z,75.28
2019-01-17T02:18:19.971Z,74.86
2019-01-17T02:20:50.800Z,74.88
2019-01-17T02:23:21.855Z,74.99
2019-01-17T02:25:52.919Z,74.93
2019-01-17T02:28:25.071Z,75.29
2019-01-17T02:30:56.319Z,74.93
2019-01-17T02:33:28.269Z,75.28
2019-01-17T02:35:59.316Z,75.56
2019-01-17T02:38:31.387Z,76.06
2019-01-17T02:41:02.123Z,75.97
2019-01-17T02:43:33.129Z,76.18
2019-01-17T02:46:04.200Z,76.36
2019-01-17T02:48:35.300Z,76.19
2019-01-17T02:51:06.113Z,76.48
2019-01-17T02:53:36.928Z,76.69
2019-01-17T02:56:07.737Z,76.95
2019-01-17T02:58:38.847Z,77.28
2019-01-17T03:01:10.402Z,77.41
2019-01-17T03:03:41.556Z,77.26
2019-01-17T03:06:12.901Z,77.17
2019-01-17T03:08:43.696Z,77.27
2019-01-17T03:11:14.481Z,77.34
2019-01-17T03:13:45.827Z,77.63
2019-01-17T03:16:16.833Z,77.28
2019-01-17T03:18:47.829Z,77.68
2019-01-17T03:21:19.432Z,77.33
2019-01-17T03:23:50.320Z,77.32
2019-01-17T03:26:21.054Z,77.51
2019-01-17T03:28:52.368Z,77.84
2019-01-17T03:31:23.510Z,77.11
2019-01-17T03:33:56.084Z,77.61
2019-01-17T03:36:26.819Z,77.17
2019-01-17T03:38:58.301Z,77.84
2019-01-17T03:41:29.477Z,77.98
2019-01-17T03:44:00.183Z,77.96
2019-01-17T03:46:31.242Z,77.49
2019-01-17T03:49:02.041Z,78.22
2019-01-17T03:51:33.445Z,78.25
2019-01-17T03:54:04.776Z,78.34
2019-01-17T03:56:35.758Z,78.47
2019-01-17T03:59:06.662Z,78.70
2019-01-17T04:01:37.550Z,78.49
2019-01-17T04:04:08.375Z,78.52
2019-01-17T04:06:39.128Z,78.69
2019-01-17T04:09:09.881Z,78.79
2019-01-17T04:11:40.755Z,78.54
2019-01-17T04:14:11.506Z,78.53
2019-01-17T04:16:42.319Z,78.89
2019-01-17T04:19:13.132Z,78.79
2019-01-17T04:21:44.018Z,78.42
2019-01-17T04:24:15.079Z,78.70
2019-01-17T04:26:46.149Z,78.66
2019-01-17T04:29:18.427Z,78.73
2019-01-17T04:31:49.253Z,78.87
2019-01-17T04:34:20.340Z,78.75
2019-01-17T04:36:52.208Z,79.26
2019-01-17T04:39:23.279Z,79.96
2019-01-17T04:41:54.026Z,79.91
2019-01-17T04:44:24.783Z,80.33
2019-01-17T04:46:55.816Z,80.84
2019-01-17T04:49:26.794Z,81.43
2019-01-17T04:51:57.529Z,81.46
2019-01-17T04:54:28.285Z,82.55
2019-01-17T04:56:59.037Z,83.04
2019-01-17T04:59:29.791Z,84.25
2019-01-17T05:02:00.751Z,84.99
2019-01-17T05:04:32.051Z,84.58
2019-01-17T05:07:03.116Z,85.11
2019-01-17T05:09:34.173Z,85.35
2019-01-17T05:12:04.977Z,86.01
2019-01-17T05:14:35.959Z,86.41
2019-01-17T05:17:06.962Z,86.87
2019-01-17T05:19:37.784Z,86.58
2019-01-17T05:22:08.835Z,87.61
2019-01-17T05:24:39.716Z,87.68
2019-01-17T05:27:10.781Z,87.90
2019-01-17T05:29:41.572Z,88.47
2019-01-17T05:32:12.874Z,88.37
2019-01-17T05:34:43.734Z,88.44
2019-01-17T05:37:15.443Z,89.17
2019-01-17T05:39:46.677Z,88.63
2019-01-17T05:42:18.090Z,90.24
2019-01-17T05:44:49.525Z,88.69
2019-01-17T05:47:20.951Z,88.71
2019-01-17T05:49:52.212Z,89.36
2019-01-17T05:52:23.192Z,89.92
2019-01-17T05:54:54.682Z,90.03
2019-01-17T05:57:25.527Z,89.53
2019-01-17T05:59:58.687Z,90.62
2019-01-17T06:02:29.432Z,91.36
2019-01-17T06:05:00.433Z,91.62
2019-01-17T06:07:31.178Z,92.55
2019-01-17T06:10:02.163Z,92.43
2019-01-17T06:12:32.976Z,92.37
2019-01-17T06:15:04.202Z,92.36
2019-01-17T06:17:35.018Z,92.22
2019-01-17T06:20:07.511Z,92.96
2019-01-17T06:22:38.248Z,93.08
2019-01-17T06:25:09.083Z,93.89
2019-01-17T06:27:40.804Z,93.98
2019-01-17T06:30:12.476Z,94.35
2019-01-17T06:32:43.530Z,95.35
2019-01-17T06:35:14.426Z,94.82
2019-01-17T06:37:45.292Z,94.87
2019-01-17T06:40:46.022Z,95.53
2019-01-17T06:43:34.012Z,95.56
2019-01-17T06:46:30.865Z,95.43
2019-01-17T06:49:14.292Z,95.66
2019-01-17T06:52:15.775Z,95.66
2019-01-17T06:54:49.208Z,96.12
2019-01-17T06:57:20.208Z,96.53
2019-01-17T06:59:51.173Z,96.80
2019-01-17T07:02:22.336Z,96.85
2019-01-17T07:04:53.132Z,97.16
2019-01-17T07:07:23.917Z,97.21
2019-01-17T07:09:54.962Z,97.23
2019-01-17T07:12:25.730Z,97.10
2019-01-17T07:14:56.487Z,97.87
2019-01-17T07:17:27.302Z,97.68
2019-01-17T07:19:58.308Z,97.41
2019-01-17T07:22:29.064Z,97.41
2019-01-17T07:25:00.509Z,97.52
2019-01-17T07:27:31.342Z,97.30
2019-01-17T07:30:02.181Z,97.43
2019-01-17T07:32:33.242Z,97.74
2019-01-17T07:35:04.156Z,98.06
2019-01-17T07:37:35.160Z,97.70
2019-01-17T07:40:06.252Z,98.29
2019-01-17T07:42:37.089Z,97.79
2019-01-17T07:45:11.466Z,97.94
2019-01-17T07:47:42.224Z,98.11
2019-01-17T07:50:13.053Z,98.34
2019-01-17T07:52:43.885Z,98.47
2019-01-17T07:55:15.684Z,99.25
2019-01-17T07:57:47.489Z,98.73
2019-01-17T08:00:20.151Z,99.12
2019-01-17T08:02:50.985Z,99.29
2019-01-17T08:05:21.806Z,99.54
2019-01-17T08:07:52.579Z,99.66
2019-01-17T08:10:23.634Z,99.95
2019-01-17T08:12:54.585Z,100.00
2019-01-17T08:15:25.439Z,100.00
2019-01-17T08:17:56.566Z,100.00
2019-01-17T08:20:27.416Z,100.00
2019-01-17T08:22:58.309Z,100.00
2019-01-17T08:25:29.083Z,100.00
2019-01-17T08:27:59.877Z,100.00
2019-01-17T08:30:32.224Z,100.00
2019-01-17T08:33:03.299Z,100.00
2019-01-17T08:35:34.152Z,100.00
2019-01-17T08:38:05.004Z,100.00
2019-01-17T08:40:35.838Z,100.00
2019-01-17T08:43:06.691Z,100.00
2019-01-17T08:45:37.748Z,100.00
2019-01-17T08:48:08.842Z,100.00
2019-01-17T08:50:40.082Z,100.00
2019-01-17T08:53:11.132Z,100.00
2019-01-17T08:55:42.196Z,100.00
2019-01-17T08:58:12.963Z,100.00
2019-01-17T09:00:44.024Z,100.00
2019-01-17T09:03:14.820Z,100.00
2019-01-17T09:05:45.585Z,100.00
2019-01-17T09:08:16.700Z,100.00
2019-01-17T09:10:47.606Z,100.00
2019-01-17T09:13:18.453Z,100.00
2019-01-17T09:15:49.440Z,100.00
2019-01-17T09:18:20.284Z,100.00
2019-01-17T09:20:51.127Z,100.00
2019-01-17T09:23:21.894Z,100.00
2019-01-17T09:25:52.731Z,100.00
2019-01-17T09:28:23.507Z,100.00
2019-01-17T09:30:54.498Z,100.00
2019-01-17T09:33:25.567Z,100.00
2019-01-17T09:35:56.321Z,100.00
2019-01-17T09:38:27.466Z,100.00
2019-01-17T09:40:58.539Z,100.00
2019-01-17T09:43:29.316Z,100.00
2019-01-17T09:46:00.530Z,100.00
2019-01-17T09:48:31.291Z,100.00
2019-01-17T09:51:02.126Z,100.00
2019-01-17T09:53:32.982Z,100.00
2019-01-17T09:56:03.739Z,99.98
2019-01-17T09:58:34.507Z,100.00
2019-01-17T10:01:05.420Z,100.00
2019-01-17T10:03:36.189Z,100.00
2019-01-17T10:06:07.083Z,100.00
2019-01-17T10:08:37.836Z,99.80
2019-01-17T10:11:08.590Z,98.79
2019-01-17T10:13:39.357Z,99.14
2019-01-17T10:16:59.286Z,99.55
2019-01-17T10:20:17.904Z,99.77
2019-01-17T10:23:25.373Z,99.78
2019-01-17T10:26:27.774Z,99.35
2019-01-17T10:29:25.138Z,98.65
2019-01-17T10:32:45.823Z,98.06
2019-01-17T10:36:02.474Z,94.15
2019-01-17T10:39:26.564Z,94.20
2019-01-17T10:42:15.679Z,96.43
2019-01-17T10:45:37.253Z,97.11
2019-01-17T10:48:36.328Z,97.47
2019-01-17T10:51:35.258Z,96.85
2019-01-17T10:54:51.759Z,98.07
2019-01-17T10:57:40.763Z,96.49
2019-01-17T11:00:38.789Z,93.38
2019-01-17T11:03:48.273Z,93.94
2019-01-17T11:06:39.201Z,89.03
2019-01-17T11:09:49.826Z,90.99
2019-01-17T11:12:41.271Z,89.74
2019-01-17T11:15:32.229Z,88.85
2019-01-17T11:18:34.124Z,90.50
2019-01-17T11:22:01.138Z,89.54
2019-01-17T11:25:08.948Z,84.70
2019-01-17T11:28:16.643Z,84.86
2019-01-17T11:31:23.276Z,85.32
2019-01-17T11:34:07.820Z,85.44
2019-01-17T11:37:08.131Z,86.89
2019-01-17T11:39:58.601Z,86.95
2019-01-17T11:42:51.674Z,85.65
2019-01-17T11:46:14.067Z,84.46
2019-01-17T11:49:28.658Z,85.38
2019-01-17T11:52:42.616Z,84.40
2019-01-17T11:55:35.016Z,82.31
2019-01-17T11:58:22.532Z,80.27
2019-01-17T12:01:46.660Z,81.69
2019-01-17T12:04:30.171Z,82.17
2019-01-17T12:07:03.715Z,81.28
2019-01-17T12:09:34.472Z,80.28
2019-01-17T12:12:05.676Z,81.39
2019-01-17T12:14:36.730Z,82.69
2019-01-17T12:17:07.553Z,82.21
2019-01-17T12:19:38.528Z,80.42
2019-01-17T12:22:10.348Z,79.95
2019-01-17T12:24:41.286Z,80.55
2019-01-17T12:27:12.015Z,78.61
2019-01-17T12:29:42.851Z,80.17
2019-01-17T12:32:13.667Z,78.40
2019-01-17T12:34:44.425Z,78.19
2019-01-17T12:37:15.405Z,79.05
2019-01-17T12:39:46.165Z,79.53
2019-01-17T12:42:20.343Z,78.77
2019-01-17T12:44:51.332Z,79.72
2019-01-17T12:47:22.079Z,79.93
2019-01-17T12:49:52.843Z,79.03
2019-01-17T12:52:23.660Z,79.66
2019-01-17T12:54:54.432Z,80.38
2019-01-17T12:57:25.663Z,81.83
2019-01-17T12:59:56.654Z,81.68
2019-01-17T13:02:27.459Z,81.64
2019-01-17T13:04:58.292Z,80.64
2019-01-17T13:07:29.332Z,79.73
2019-01-17T13:10:00.181Z,80.67
2019-01-17T13:12:30.960Z,79.82
2019-01-17T13:15:01.909Z,80.57
2019-01-17T13:17:32.861Z,79.65
2019-01-17T13:20:04.233Z,81.46
2019-01-17T13:22:35.151Z,80.53
2019-01-17T13:25:07.143Z,81.17
2019-01-17T13:27:38.106Z,79.64
2019-01-17T13:30:16.073Z,77.02
2019-01-17T13:32:47.393Z,76.93
2019-01-17T13:35:18.305Z,77.20
2019-01-17T13:37:50.092Z,77.47
2019-01-17T13:40:21.829Z,77.64
2019-01-17T13:42:52.636Z,78.04
2019-01-17T13:45:23.687Z,78.08
2019-01-17T13:47:54.493Z,78.69
2019-01-17T13:50:25.906Z,78.74
2019-01-17T13:52:56.648Z,78.21
2019-01-17T13:55:27.623Z,78.23
2019-01-17T13:57:58.398Z,76.91
2019-01-17T14:00:30.267Z,76.47
2019-01-17T14:03:01.228Z,74.79
2019-01-17T14:05:32.057Z,75.45
2019-01-17T14:08:02.808Z,76.32
2019-01-17T14:10:33.645Z,75.87
2019-01-17T14:13:04.818Z,76.46
2019-01-17T14:15:35.721Z,75.64
2019-01-17T14:18:06.534Z,75.33
2019-01-17T14:20:37.357Z,74.10
2019-01-17T14:23:09.288Z,73.15
2019-01-17T14:25:40.152Z,75.51
2019-01-17T14:28:11.122Z,73.86
2019-01-17T14:30:42.120Z,76.24
2019-01-17T14:33:13.345Z,78.05
2019-01-17T14:35:44.699Z,77.91
2019-01-17T14:38:15.441Z,77.34
2019-01-17T14:40:46.195Z,76.19
2019-01-17T14:43:20.022Z,72.44
2019-01-17T14:45:51.031Z,73.91
2019-01-17T14:48:21.919Z,73.48
2019-01-17T14:50:52.680Z,74.83
2019-01-17T14:53:24.626Z,73.98
2019-01-17T14:55:55.456Z,74.77
2019-01-17T14:58:26.739Z,74.21
2019-01-17T15:00:57.721Z,75.10
2019-01-17T15:03:28.720Z,75.25
2019-01-17T15:05:59.793Z,74.77
2019-01-17T15:08:30.554Z,73.81
2019-01-17T15:11:02.446Z,74.92
2019-01-17T15:13:33.269Z,74.86
2019-01-17T15:16:04.474Z,74.90
2019-01-17T15:18:35.466Z,74.45
2019-01-17T15:21:06.621Z,75.15
2019-01-17T15:23:37.356Z,74.28
2019-01-17T15:26:08.184Z,75.65
2019-01-17T15:28:39.148Z,75.25
2019-01-17T15:31:09.980Z,75.94
2019-01-17T15:33:40.950Z,76.15
2019-01-17T15:36:11.939Z,76.99
2019-01-17T15:38:42.749Z,76.75
2019-01-17T15:41:13.583Z,78.75
2019-01-17T15:43:44.346Z,79.65
2019-01-17T15:46:15.333Z,80.06
2019-01-17T15:48:46.149Z,81.48
2019-01-17T15:51:17.048Z,80.22
2019-01-17T15:53:47.801Z,81.44
2019-01-17T15:56:18.543Z,82.18
2019-01-17T15:58:49.279Z,80.92
2019-01-17T16:01:20.348Z,81.63
2019-01-17T16:03:51.569Z,82.19
2019-01-17T16:06:22.316Z,81.51
2019-01-17T16:08:53.282Z,81.38
2019-01-17T16:11:24.037Z,82.36
2019-01-17T16:13:54.772Z,82.26
2019-01-17T16:16:25.829Z,81.96
2019-01-17T16:18:56.933Z,83.04
2019-01-17T16:21:27.695Z,83.38
2019-01-17T16:23:58.441Z,83.27
2019-01-17T16:26:29.196Z,83.58
2019-01-17T16:29:00.161Z,83.03
2019-01-17T16:31:31.385Z,83.87
2019-01-17T16:34:02.195Z,83.02
2019-01-17T16:36:33.198Z,82.91
2019-01-17T16:39:05.929Z,82.88
2019-01-17T16:41:37.267Z,83.13
2019-01-17T16:44:08.481Z,83.99
2019-01-17T16:46:39.249Z,83.39
2019-01-17T16:49:10.228Z,83.64
2019-01-17T16:51:41.198Z,83.80
2019-01-17T16:54:12.242Z,84.21
2019-01-17T16:56:42.996Z,84.13
2019-01-17T16:59:13.828Z,83.95
2019-01-17T17:01:44.640Z,84.00
2019-01-17T17:04:15.868Z,83.68
2019-01-17T17:06:46.828Z,83.48
2019-01-17T17:09:17.896Z,83.24
2019-01-17T17:11:48.722Z,83.71
2019-01-17T17:14:19.512Z,83.61
2019-01-17T17:16:50.324Z,84.17
2019-01-17T17:19:21.686Z,84.81
2019-01-17T17:21:52.511Z,84.41
2019-01-17T17:24:23.511Z,85.16
2019-01-17T17:26:54.319Z,85.91
2019-01-17T17:29:25.245Z,86.10
2019-01-17T17:31:56.480Z,85.46
2019-01-17T17:34:27.868Z,84.54
2019-01-17T17:36:58.877Z,84.49
2019-01-17T17:39:29.705Z,84.39
2019-01-17T17:42:00.917Z,84.15
2019-01-17T17:44:31.877Z,83.29
2019-01-17T17:47:03.206Z,83.80
2019-01-17T17:49:34.053Z,81.44
2019-01-17T17:52:04.882Z,81.42
2019-01-17T17:54:35.863Z,82.30
2019-01-17T17:57:06.598Z,82.49
2019-01-17T17:59:37.639Z,81.58
2019-01-17T18:02:14.197Z,81.88
2019-01-17T18:04:45.255Z,82.02
2019-01-17T18:07:16.293Z,82.37
2019-01-17T18:09:47.287Z,81.98
2019-01-17T18:12:18.027Z,82.04
2019-01-17T18:14:48.881Z,82.80
2019-01-17T18:17:19.624Z,82.30
2019-01-17T18:19:50.382Z,82.56
2019-01-17T18:22:21.499Z,82.51
2019-01-17T18:24:52.491Z,83.21
2019-01-17T18:27:23.241Z,83.51
2019-01-17T18:29:54.221Z,83.57
2019-01-17T18:32:25.359Z,83.86
2019-01-17T18:34:56.186Z,84.48
2019-01-17T18:37:27.214Z,84.20
2019-01-17T18:39:58.452Z,84.05
2019-01-17T18:42:29.503Z,84.46
2019-01-17T18:45:00.316Z,84.42
2019-01-17T18:47:31.292Z,85.13
2019-01-17T18:50:02.317Z,84.43
2019-01-17T18:52:33.728Z,84.78
2019-01-17T18:55:04.872Z,85.28
2019-01-17T18:57:35.608Z,85.24
2019-01-17T19:00:13.117Z,85.50
2019-01-17T19:02:43.938Z,85.76
2019-01-17T19:05:14.989Z,85.63
2019-01-17T19:07:45.758Z,86.27
2019-01-17T19:10:17.279Z,86.65
2019-01-17T19:12:48.334Z,86.44
2019-01-17T19:15:27.716Z,86.75
2019-01-17T19:17:58.626Z,87.28
2019-01-17T19:20:29.686Z,87.43
2019-01-17T19:23:00.538Z,87.38
2019-01-17T19:25:31.784Z,86.95
2019-01-17T19:28:02.826Z,87.78
2019-01-17T19:30:33.875Z,87.57
2019-01-17T19:33:05.367Z,87.39
2019-01-17T19:35:36.424Z,86.89
2019-01-17T19:38:07.418Z,85.82
2019-01-17T19:40:38.344Z,85.57
2019-01-17T19:43:09.296Z,84.99
2019-01-17T19:45:40.124Z,84.77
2019-01-17T19:48:11.427Z,85.34
2019-01-17T19:50:42.316Z,85.35
2019-01-17T19:53:13.286Z,84.69
2019-01-17T19:55:44.113Z,85.17
2019-01-17T19:58:15.160Z,84.40
2019-01-17T20:00:45.942Z,84.37
2019-01-17T20:03:17.013Z,84.54
2019-01-17T20:05:48.063Z,84.74
2019-01-17T20:08:18.811Z,84.70
2019-01-17T20:10:49.872Z,84.69
2019-01-17T20:13:20.614Z,84.93
2019-01-17T20:15:51.675Z,85.09
2019-01-17T20:18:22.418Z,85.21
2019-01-17T20:20:53.514Z,84.88
2019-01-17T20:23:24.481Z,84.99
2019-01-17T20:25:55.257Z,84.85
2019-01-17T20:28:26.076Z,85.27
2019-01-17T20:30:57.043Z,84.85
2019-01-17T20:33:28.372Z,84.70
2019-01-17T20:35:59.139Z,85.23
2019-01-17T20:38:30.044Z,84.39
2019-01-17T20:41:00.797Z,85.39
2019-01-17T20:43:31.609Z,85.24
2019-01-17T20:46:02.366Z,86.10
2019-01-17T20:48:33.528Z,85.41
2019-01-17T20:51:04.586Z,85.85
2019-01-17T20:53:35.333Z,85.65
2019-01-17T20:56:06.485Z,85.72
2019-01-17T20:58:42.257Z,84.26
2019-01-17T21:01:37.914Z,84.71
2019-01-17T21:04:09.356Z,84.91
2019-01-17T21:06:40.111Z,85.91
2019-01-17T21:09:11.423Z,86.55
2019-01-17T21:11:42.188Z,86.00
2019-01-17T21:14:13.283Z,85.53
2019-01-17T21:16:44.323Z,85.14
2019-01-17T21:19:15.071Z,84.01
2019-01-17T21:21:45.906Z,83.95
2019-01-17T21:24:16.876Z,84.40
2019-01-17T21:26:47.633Z,84.30
2019-01-17T21:29:18.603Z,84.83
2019-01-17T21:31:49.677Z,84.54
2019-01-17T21:34:21.391Z,83.91
2019-01-17T21:36:52.466Z,84.24
2019-01-17T21:39:23.283Z,82.34
2019-01-17T21:41:54.364Z,82.38
2019-01-17T21:44:25.201Z,82.72
2019-01-17T21:46:56.259Z,82.15
2019-01-17T21:49:26.995Z,81.57
2019-01-17T21:51:58.073Z,80.80
2019-01-17T21:54:29.287Z,78.79
2019-01-17T21:57:00.382Z,78.43
2019-01-17T21:59:31.351Z,78.28
2019-01-17T22:02:02.103Z,77.31
2019-01-17T22:04:32.937Z,77.14
2019-01-17T22:07:03.749Z,77.21
2019-01-17T22:09:34.737Z,76.80
2019-01-17T22:12:05.567Z,77.23
2019-01-17T22:14:36.728Z,77.38
2019-01-17T22:17:07.584Z,77.72
2019-01-17T22:19:38.632Z,77.63
2019-01-17T22:22:09.472Z,76.56
2019-01-17T22:24:40.225Z,78.13
2019-01-17T22:27:11.228Z,77.09
2019-01-17T22:29:41.973Z,77.39
2019-01-17T22:32:12.741Z,76.03
2019-01-17T22:34:43.481Z,77.72
2019-01-17T22:37:14.599Z,77.04
2019-01-17T22:39:45.571Z,77.64
2019-01-17T22:42:16.564Z,75.62
2019-01-17T22:44:47.380Z,77.05
2019-01-17T22:47:18.420Z,76.27
2019-01-17T22:49:49.393Z,76.66
2019-01-17T22:52:20.217Z,76.25
2019-01-17T22:54:50.968Z,76.62
2019-01-17T22:57:21.979Z,76.66
2019-01-17T22:59:52.989Z,76.70
2019-01-17T23:02:23.869Z,77.06
2019-01-17T23:04:54.876Z,77.03
2019-01-17T23:07:25.856Z,77.75
2019-01-17T23:09:56.840Z,77.40
2019-01-17T23:12:27.923Z,77.69
2019-01-17T23:14:58.911Z,77.09
2019-01-17T23:17:29.700Z,77.53
2019-01-17T23:20:00.668Z,77.53
2019-01-17T23:22:31.422Z,77.56
2019-01-17T23:25:02.884Z,78.15
2019-01-17T23:27:33.619Z,78.79
2019-01-17T23:30:06.314Z,77.62
2019-01-17T23:32:37.053Z,78.71
2019-01-17T23:35:07.946Z,77.80
2019-01-17T23:37:38.779Z,77.81
2019-01-17T23:40:10.020Z,77.93
2019-01-17T23:42:40.845Z,78.47
2019-01-17T23:45:11.676Z,78.88
2019-01-17T23:47:42.431Z,78.98
2019-01-17T23:50:13.757Z,79.28
2019-01-17T23:52:44.524Z,79.95
2019-01-17T23:55:15.352Z,80.50
2019-01-17T23:57:46.224Z,81.48
